»·PEaware :: N172QT KSAN-KAVX

N172QT :: KSAN-KAVX

FLIGHT INFORMATION

Flight Status: Arrived
Operator: Privately registered:
United States
More flights under this callsign
Pilot: Kevin G. (10950)
Aircraft: CESSNA 172 SKYHAWK
(C172)
More flights by this aircraft type
Origin: KSAN San Diego Intl-Lindbergh
United States
Destination: KAVX Catalina
United States
More flights between these airports :: More routes between these airports
Route: +MZB V23 OCN V208 SXC
File this flight plan on PilotEdge
Remarks: TEC route SANN1
Altitude:
(Current/Filed)
6,000ft
Speed:
(Current/Filed)
105kts
Departed: 30-Dec-17 02:27 PM
Arrived: 30-Dec-17 03:19 PM
Distance/Time
Traveled:
74nm/0:52
Distance/Time
To Go:
Arrived

Flight Plot

Page will automatically refresh every two minutes.


Map Options




Map Legend


Flown Route
Filed Route
Departure Airport
Arrival Airport
Navaid (VOR, NDB)
Fix

Horizontal Profiles

Position Reports

Time Latitude Longitude Heading Altitude Ground
Speed
30-Dec-17 14:09 32.732421 -117.176641 194 22ft 0kts
30-Dec-17 14:10 32.732421 -117.176641 194 22ft 0kts
30-Dec-17 14:11 32.732421 -117.176641 194 22ft 0kts
30-Dec-17 14:12 32.732421 -117.176641 194 22ft 0kts
30-Dec-17 14:13 32.732421 -117.176641 194 22ft 0kts
30-Dec-17 14:14 32.732421 -117.176641 194 22ft 0kts
30-Dec-17 14:15 32.732421 -117.176641 194 22ft 0kts
30-Dec-17 14:16 32.732421 -117.176641 194 22ft 0kts
30-Dec-17 14:17 32.732421 -117.176641 194 22ft 0kts
30-Dec-17 14:18 32.732421 -117.176641 194 22ft 0kts
30-Dec-17 14:19 32.732420 -117.176641 194 22ft 0kts
30-Dec-17 14:20 32.732420 -117.176641 194 22ft 0kts
30-Dec-17 14:21 32.732420 -117.176641 194 22ft 0kts
30-Dec-17 14:22 32.732420 -117.176641 194 22ft 0kts
30-Dec-17 14:23 32.732420 -117.176641 194 22ft 0kts
30-Dec-17 14:24 32.732420 -117.176641 194 22ft 0kts
30-Dec-17 14:25 32.732420 -117.176641 194 22ft 0kts
30-Dec-17 14:26 32.732420 -117.176641 194 22ft 0kts
30-Dec-17 14:27 32.732420 -117.176641 194 22ft 0kts
30-Dec-17 14:28 32.732420 -117.176641 194 22ft 0kts
30-Dec-17 14:29 32.732420 -117.176641 194 22ft 0kts
30-Dec-17 14:30 32.730947 -117.175178 215 22ft 0kts
30-Dec-17 14:31 32.730856 -117.175298 209 22ft 0kts
30-Dec-17 14:32 32.730270 -117.176176 286 20ft 18kts
30-Dec-17 14:33 32.734904 -117.192963 283 492ft 68kts
30-Dec-17 14:34 32.751332 -117.208711 320 1370ft 80kts
30-Dec-17 14:35 32.769560 -117.223274 321 2263ft 78kts
30-Dec-17 14:36 32.786930 -117.237374 323 3148ft 73kts
30-Dec-17 14:37 32.805662 -117.244749 337 3973ft 72kts
30-Dec-17 14:38 32.825261 -117.252348 338 4677ft 75kts
30-Dec-17 14:39 32.844699 -117.259823 336 5363ft 74kts
30-Dec-17 14:40 32.864282 -117.268203 336 5992ft 81kts
30-Dec-17 14:41 32.891278 -117.278958 338 5988ft 106kts
30-Dec-17 14:42 32.918690 -117.289669 337 5989ft 103kts
30-Dec-17 14:43 32.946738 -117.300820 337 5995ft 107kts
30-Dec-17 14:44 32.975294 -117.312133 337 5997ft 108kts
30-Dec-17 14:45 33.003930 -117.323494 337 5997ft 109kts
30-Dec-17 14:46 33.032685 -117.334916 337 5997ft 108kts
30-Dec-17 14:47 33.060703 -117.346059 337 5997ft 108kts
30-Dec-17 14:48 33.089219 -117.357402 337 5997ft 108kts
30-Dec-17 14:49 33.117604 -117.368700 337 5996ft 108kts
30-Dec-17 14:50 33.145978 -117.380010 337 5994ft 108kts
30-Dec-17 14:51 33.174603 -117.391422 337 5992ft 108kts
30-Dec-17 14:52 33.203299 -117.402870 337 5990ft 109kts
30-Dec-17 14:53 33.232092 -117.414392 337 5988ft 109kts
30-Dec-17 14:54 33.243698 -117.442779 275 5990ft 100kts
30-Dec-17 14:55 33.247715 -117.475785 275 5992ft 100kts
30-Dec-17 14:56 33.251705 -117.508684 275 5995ft 99kts
30-Dec-17 14:57 33.255623 -117.540973 276 5998ft 99kts
30-Dec-17 14:58 33.259581 -117.573654 276 6002ft 99kts
30-Dec-17 14:59 33.264308 -117.606207 278 6005ft 99kts
30-Dec-17 15:00 33.269345 -117.638726 278 6037ft 96kts
30-Dec-17 15:01 33.274217 -117.670917 278 6035ft 99kts
30-Dec-17 15:02 33.279095 -117.703327 278 6034ft 100kts
30-Dec-17 15:03 33.284042 -117.736189 278 6034ft 100kts
30-Dec-17 15:04 33.288780 -117.769242 277 6015ft 100kts
30-Dec-17 15:05 33.293422 -117.803400 277 5560ft 103kts
30-Dec-17 15:06 33.297972 -117.837095 277 5063ft 104kts
30-Dec-17 15:07 33.302442 -117.871378 278 4572ft 106kts
30-Dec-17 15:08 33.307218 -117.905979 278 4120ft 104kts
30-Dec-17 15:09 33.311661 -117.939400 277 4023ft 100kts
30-Dec-17 15:10 33.316084 -117.972576 277 4025ft 101kts
30-Dec-17 15:11 33.320548 -118.006004 276 4027ft 102kts
30-Dec-17 15:12 33.325047 -118.039771 276 4028ft 103kts
30-Dec-17 15:13 33.329550 -118.073637 276 4029ft 103kts
30-Dec-17 15:14 33.334069 -118.107700 276 4030ft 104kts
30-Dec-17 15:15 33.338601 -118.141930 276 4032ft 104kts
30-Dec-17 15:16 33.343161 -118.175983 280 4032ft 104kts
30-Dec-17 15:17 33.352532 -118.210382 290 3672ft 113kts
30-Dec-17 15:18 33.364383 -118.244283 290 3157ft 104kts
30-Dec-17 15:19 33.375476 -118.275643 290 3028ft 105kts
30-Dec-17 15:20 33.385366 -118.307338 281 3030ft 99kts
30-Dec-17 15:21 33.392236 -118.339175 281 2692ft 95kts
30-Dec-17 15:22 33.404599 -118.367415 309 2523ft 92kts
30-Dec-17 15:23 33.419009 -118.386634 284 2410ft 66kts
30-Dec-17 15:24 33.411773 -118.404265 235 1791ft 59kts
30-Dec-17 15:25 33.405604 -118.414734 236 1538ft 7kts
30-Dec-17 15:26 33.404700 -118.415034 170 1543ft 7kts
30-Dec-17 15:27 33.403466 -118.415118 323 1546ft 0kts
30-Dec-17 15:28 33.403466 -118.415118 323 1546ft 0kts
30-Dec-17 15:29 33.403466 -118.415118 323 1546ft 0kts

Navigation Log

Ident Type
1. KSAN Airport
2. MZB Navaid
3. CARIF Fix
4. HURSI Fix
5. OCN Navaid
6. HUBRD Fix
7. PACIF Fix
8. AVOLS Fix
9. SXC Navaid
10. KAVX Airport